createdAt,value
2022-07-30T00:01:22.489Z,70.15
2022-07-30T00:04:25.519Z,70.56
2022-07-30T00:07:28.407Z,70.94
2022-07-30T00:10:31.275Z,71.18
2022-07-30T00:13:33.738Z,71.08
2022-07-30T00:16:37.054Z,70.81
2022-07-30T00:19:39.629Z,72.00
2022-07-30T00:22:46.939Z,72.40
2022-07-30T00:25:49.455Z,73.07
2022-07-30T00:28:52.601Z,72.13
2022-07-30T00:31:55.052Z,72.41
2022-07-30T00:34:58.605Z,72.16
2022-07-30T00:38:01.262Z,72.41
2022-07-30T00:41:04.078Z,72.89
2022-07-30T00:44:06.549Z,73.26
2022-07-30T00:47:09.378Z,73.49
2022-07-30T00:50:13.748Z,73.92
2022-07-30T00:53:16.587Z,73.18
2022-07-30T00:56:19.115Z,72.78
2022-07-30T00:59:22.222Z,72.71
2022-07-30T01:02:25.210Z,72.71
2022-07-30T01:05:28.075Z,72.46
2022-07-30T01:08:30.751Z,72.27
2022-07-30T01:11:38.442Z,72.54
2022-07-30T01:14:41.005Z,72.52
2022-07-30T01:17:44.859Z,72.34
2022-07-30T01:21:05.292Z,72.34
2022-07-30T01:24:47.082Z,73.10
2022-07-30T01:27:58.310Z,73.47
2022-07-30T01:31:03.412Z,72.87
2022-07-30T01:34:06.867Z,73.00
2022-07-30T01:37:11.733Z,72.64
2022-07-30T01:40:15.302Z,73.10
2022-07-30T01:43:20.149Z,73.41
2022-07-30T01:46:23.958Z,73.63
2022-07-30T01:49:29.904Z,73.16
2022-07-30T01:52:36.388Z,73.38
2022-07-30T01:55:41.989Z,73.77
2022-07-30T01:58:48.969Z,74.47
2022-07-30T02:01:52.812Z,74.03
2022-07-30T02:04:55.821Z,73.53
2022-07-30T02:08:07.470Z,73.89
2022-07-30T02:11:15.725Z,74.25
2022-07-30T02:14:23.906Z,73.87
2022-07-30T02:17:39.676Z,74.49
2022-07-30T02:20:51.246Z,74.52
2022-07-30T02:23:55.638Z,73.74
2022-07-30T02:27:08.621Z,73.75
2022-07-30T02:30:12.245Z,73.97
2022-07-30T02:33:17.527Z,74.32
2022-07-30T02:36:20.792Z,74.11
2022-07-30T02:39:24.578Z,74.48
2022-07-30T02:42:29.744Z,74.57
2022-07-30T02:45:33.783Z,75.09
2022-07-30T02:48:40.066Z,75.52
2022-07-30T02:51:43.285Z,75.16
2022-07-30T02:54:47.947Z,75.14
2022-07-30T02:57:53.374Z,75.05
2022-07-30T03:00:57.547Z,74.92
2022-07-30T03:04:01.671Z,75.06
2022-07-30T03:07:08.425Z,74.75
2022-07-30T03:10:13.125Z,75.00
2022-07-30T03:13:18.075Z,75.60
2022-07-30T03:16:23.421Z,75.70
2022-07-30T03:19:31.087Z,75.57
2022-07-30T03:22:41.455Z,75.32
2022-07-30T03:25:47.938Z,75.34
2022-07-30T03:28:51.632Z,75.38
2022-07-30T03:31:54.913Z,76.10
2022-07-30T03:35:05.926Z,76.19
2022-07-30T03:38:14.450Z,76.56
2022-07-30T03:41:18.043Z,77.04
2022-07-30T03:44:22.176Z,77.18
2022-07-30T03:47:26.374Z,77.53
2022-07-30T03:50:29.428Z,77.85
2022-07-30T03:53:33.131Z,78.35
2022-07-30T03:56:40.502Z,78.51
2022-07-30T03:59:43.696Z,78.93
2022-07-30T04:02:47.335Z,79.03
2022-07-30T04:05:54.343Z,78.78
2022-07-30T04:08:56.826Z,79.07
2022-07-30T04:11:59.696Z,79.03
2022-07-30T04:15:02.575Z,78.80
2022-07-30T04:18:27.878Z,79.04
2022-07-30T04:21:33.643Z,78.34
2022-07-30T04:24:39.212Z,78.22
2022-07-30T04:27:58.453Z,78.15
2022-07-30T04:31:05.766Z,77.31
2022-07-30T04:34:08.566Z,77.29
2022-07-30T04:37:11.826Z,77.30
2022-07-30T04:40:14.487Z,77.32
2022-07-30T04:43:17.482Z,77.28
2022-07-30T04:46:20.681Z,77.41
2022-07-30T04:49:28.821Z,77.14
2022-07-30T04:52:32.272Z,76.79
2022-07-30T04:55:36.207Z,76.85
2022-07-30T04:58:41.420Z,76.81
2022-07-30T05:01:49.845Z,76.45
2022-07-30T05:04:54.503Z,76.52
2022-07-30T05:07:57.884Z,76.94
2022-07-30T05:11:00.781Z,77.34
2022-07-30T05:14:03.685Z,77.16
2022-07-30T05:17:06.261Z,77.06
2022-07-30T05:20:10.116Z,77.17
2022-07-30T05:23:15.221Z,76.70
2022-07-30T05:26:22.151Z,75.70
2022-07-30T05:29:31.435Z,75.62
2022-07-30T05:32:34.863Z,75.91
2022-07-30T05:35:38.693Z,75.73
2022-07-30T05:38:41.772Z,75.44
2022-07-30T05:41:45.568Z,74.86
2022-07-30T05:44:48.473Z,73.76
2022-07-30T05:47:51.082Z,72.75
2022-07-30T05:50:54.433Z,71.85
2022-07-30T05:53:57.158Z,70.17
2022-07-30T05:57:00.906Z,68.58
2022-07-30T06:00:06.223Z,67.81
2022-07-30T06:03:18.983Z,67.38
2022-07-30T06:06:23.733Z,68.97
2022-07-30T06:09:36.556Z,69.45
2022-07-30T06:12:41.835Z,70.37
2022-07-30T06:15:44.801Z,71.74
2022-07-30T06:18:47.701Z,72.90
2022-07-30T06:22:05.300Z,73.33
2022-07-30T06:25:11.539Z,73.36
2022-07-30T06:28:36.958Z,73.09
2022-07-30T06:31:41.843Z,72.49
2022-07-30T06:34:45.420Z,72.30
2022-07-30T06:37:58.555Z,72.29
2022-07-30T06:41:11.181Z,72.48
2022-07-30T06:44:14.918Z,72.50
2022-07-30T06:47:26.256Z,71.51
2022-07-30T06:50:29.136Z,70.26
2022-07-30T06:53:31.745Z,69.37
2022-07-30T06:56:37.313Z,69.75
2022-07-30T06:59:56.581Z,68.64
2022-07-30T07:03:00.721Z,68.09
2022-07-30T07:06:05.320Z,67.24
2022-07-30T07:09:08.352Z,66.12
2022-07-30T07:12:11.095Z,65.69
2022-07-30T07:15:15.340Z,65.34
2022-07-30T07:18:19.408Z,64.03
2022-07-30T07:21:23.555Z,64.09
2022-07-30T07:24:26.705Z,65.04
2022-07-30T07:27:29.898Z,64.44
2022-07-30T07:30:33.558Z,64.78
2022-07-30T07:33:40.505Z,65.19
2022-07-30T07:36:43.387Z,63.87
2022-07-30T07:39:46.415Z,63.56
2022-07-30T07:42:49.283Z,64.12
2022-07-30T07:45:53.454Z,63.61
2022-07-30T07:48:56.867Z,62.56
2022-07-30T07:52:00.846Z,61.40
2022-07-30T07:55:03.591Z,60.36
2022-07-30T07:58:13.555Z,59.69
2022-07-30T08:01:21.997Z,59.68
2022-07-30T08:04:27.509Z,58.86
2022-07-30T08:07:32.652Z,59.14
2022-07-30T08:10:37.143Z,60.44
2022-07-30T08:13:48.154Z,61.45
2022-07-30T08:17:02.218Z,63.10
2022-07-30T08:20:09.104Z,63.50
2022-07-30T08:23:12.827Z,63.38
2022-07-30T08:26:15.559Z,64.42
2022-07-30T08:29:18.491Z,64.83
2022-07-30T08:32:21.401Z,65.22
2022-07-30T08:35:24.342Z,73.16
2022-07-30T08:38:27.253Z,82.89
2022-07-30T08:41:31.297Z,81.75
2022-07-30T08:44:35.690Z,85.90
2022-07-30T08:47:41.424Z,81.50
2022-07-30T08:50:50.273Z,79.27
2022-07-30T08:53:57.781Z,78.33
2022-07-30T08:57:00.576Z,72.92
2022-07-30T09:00:07.114Z,69.64
2022-07-30T09:03:11.866Z,68.53
2022-07-30T09:06:15.719Z,69.37
2022-07-30T09:09:18.313Z,69.62
2022-07-30T09:12:44.107Z,70.23
2022-07-30T09:15:46.662Z,70.16
2022-07-30T09:18:50.912Z,71.59
2022-07-30T09:21:58.462Z,74.06
2022-07-30T09:25:01.744Z,73.08
2022-07-30T09:28:16.394Z,73.05
2022-07-30T09:34:40.238Z,74.54
2022-07-30T09:38:03.205Z,75.18
2022-07-30T09:41:37.762Z,75.46
2022-07-30T09:44:41.975Z,75.78
2022-07-30T09:47:48.353Z,76.49
2022-07-30T09:50:54.457Z,80.24
2022-07-30T09:54:00.094Z,81.02
2022-07-30T10:00:35.841Z,82.21
2022-07-30T10:03:43.059Z,86.53
2022-07-30T10:07:00.729Z,94.14
2022-07-30T10:10:07.986Z,100.00
2022-07-30T10:13:20.727Z,100.00
2022-07-30T10:16:29.444Z,100.00
2022-07-30T10:19:39.778Z,100.00
2022-07-30T10:22:51.581Z,100.00
2022-07-30T10:26:03.646Z,100.00
2022-07-30T10:29:09.236Z,100.00
2022-07-30T10:32:15.742Z,100.00
2022-07-30T10:35:34.403Z,100.00
2022-07-30T10:38:43.369Z,100.00
2022-07-30T10:41:56.770Z,100.00
2022-07-30T10:45:17.143Z,100.00
2022-07-30T10:48:22.042Z,100.00
2022-07-30T10:51:48.048Z,100.00
2022-07-30T10:54:53.866Z,100.00
2022-07-30T10:58:07.745Z,100.00
2022-07-30T11:01:18.435Z,100.00
2022-07-30T11:04:29.508Z,100.00
2022-07-30T11:07:32.747Z,100.00
2022-07-30T11:10:43.996Z,100.00
2022-07-30T11:13:56.035Z,100.00
2022-07-30T11:16:59.876Z,100.00
2022-07-30T11:20:03.353Z,100.00
2022-07-30T11:23:10.282Z,100.00
2022-07-30T11:26:38.857Z,100.00
2022-07-30T11:29:50.630Z,100.00
2022-07-30T11:33:18.631Z,100.00
2022-07-30T11:36:21.474Z,100.00
2022-07-30T11:39:55.369Z,100.00
2022-07-30T11:43:34.914Z,100.00
2022-07-30T11:46:48.171Z,100.00
2022-07-30T11:49:51.266Z,100.00
2022-07-30T11:52:58.972Z,100.00
2022-07-30T11:56:03.569Z,100.00
2022-07-30T11:59:08.354Z,100.00
2022-07-30T12:02:11.001Z,100.00
2022-07-30T12:05:14.337Z,96.87
2022-07-30T12:08:33.451Z,92.72
2022-07-30T12:11:39.246Z,91.04
2022-07-30T12:14:44.479Z,89.83
2022-07-30T12:17:47.395Z,86.15
2022-07-30T12:20:59.440Z,84.05
2022-07-30T12:24:07.363Z,82.60
2022-07-30T12:27:12.813Z,83.07
2022-07-30T12:30:17.326Z,82.52
2022-07-30T12:33:20.789Z,82.25
2022-07-30T12:36:30.752Z,79.22
2022-07-30T12:39:33.728Z,79.98
2022-07-30T12:42:38.794Z,75.27
2022-07-30T12:45:51.865Z,74.74
2022-07-30T12:49:22.259Z,75.65
2022-07-30T12:52:34.792Z,74.00
2022-07-30T12:55:37.771Z,70.10
2022-07-30T12:58:41.211Z,73.53
2022-07-30T13:01:47.097Z,70.05
2022-07-30T13:04:59.157Z,70.84
2022-07-30T13:08:14.532Z,69.53
2022-07-30T13:11:18.908Z,72.97
2022-07-30T13:14:23.578Z,70.64
2022-07-30T13:17:27.330Z,66.72
2022-07-30T13:20:30.374Z,67.29
2022-07-30T13:23:36.892Z,67.84
2022-07-30T13:26:39.689Z,69.78
2022-07-30T13:29:42.585Z,72.27
2022-07-30T13:32:45.557Z,73.75
2022-07-30T13:35:48.470Z,73.75
2022-07-30T13:38:52.295Z,73.84
2022-07-30T13:41:55.374Z,72.69
2022-07-30T13:44:58.173Z,72.61
2022-07-30T13:48:00.679Z,70.86
2022-07-30T13:51:05.115Z,69.08
2022-07-30T13:54:07.826Z,69.21
2022-07-30T13:57:10.715Z,70.12
2022-07-30T14:00:13.791Z,71.61
2022-07-30T14:03:16.846Z,73.25
2022-07-30T14:06:19.936Z,72.61
2022-07-30T14:09:22.816Z,74.62
2022-07-30T14:12:25.381Z,76.29
2022-07-30T14:15:31.274Z,76.81
2022-07-30T14:18:34.081Z,77.71
2022-07-30T14:21:37.065Z,75.82
2022-07-30T14:24:39.659Z,73.13
2022-07-30T14:27:42.753Z,72.61
2022-07-30T14:30:47.496Z,73.77
2022-07-30T14:33:50.293Z,76.16
2022-07-30T14:36:52.797Z,75.61
2022-07-30T14:39:55.785Z,74.68
2022-07-30T14:42:58.337Z,73.63
2022-07-30T14:46:01.288Z,74.37
2022-07-30T14:49:03.940Z,73.32
2022-07-30T14:52:06.919Z,71.28
2022-07-30T14:55:09.913Z,70.95
2022-07-30T14:58:13.069Z,69.72
2022-07-30T15:01:17.000Z,70.34
2022-07-30T15:04:20.258Z,67.97
2022-07-30T15:07:22.931Z,66.97
2022-07-30T15:10:26.016Z,66.87
2022-07-30T15:13:28.686Z,66.71
2022-07-30T15:16:33.417Z,64.39
2022-07-30T15:19:35.893Z,52.72
2022-07-30T15:22:38.892Z,45.37
2022-07-30T15:25:42.321Z,41.93
2022-07-30T15:28:45.490Z,39.64
2022-07-30T15:31:48.107Z,38.25
2022-07-30T15:34:51.195Z,45.15
2022-07-30T15:37:53.753Z,50.76
2022-07-30T15:40:56.642Z,53.91
2022-07-30T15:43:59.397Z,57.67
2022-07-30T15:47:02.234Z,51.81
2022-07-30T15:50:05.668Z,44.76
2022-07-30T15:53:15.938Z,41.71
2022-07-30T15:56:20.753Z,39.22
2022-07-30T15:59:24.056Z,42.52
2022-07-30T16:02:26.672Z,45.58
2022-07-30T16:05:29.442Z,52.01
2022-07-30T16:08:52.240Z,55.91
2022-07-30T16:11:55.278Z,60.62
2022-07-30T16:14:58.297Z,63.46
2022-07-30T16:18:01.650Z,64.71
2022-07-30T16:21:04.195Z,65.83
2022-07-30T16:24:07.311Z,67.53
2022-07-30T16:27:09.941Z,68.32
2022-07-30T16:30:13.194Z,67.62
2022-07-30T16:33:16.384Z,66.83
2022-07-30T16:36:19.177Z,66.01
2022-07-30T16:39:21.876Z,66.57
2022-07-30T16:42:25.137Z,66.39
2022-07-30T16:45:28.455Z,65.96
2022-07-30T16:48:32.827Z,66.33
2022-07-30T16:51:35.378Z,65.77
2022-07-30T16:54:38.425Z,64.06
2022-07-30T16:57:41.059Z,66.93
2022-07-30T17:00:44.167Z,66.61
2022-07-30T17:03:46.714Z,64.93
2022-07-30T17:06:51.557Z,65.11
2022-07-30T17:09:54.250Z,65.72
2022-07-30T17:12:57.462Z,64.04
2022-07-30T17:16:01.434Z,66.26
2022-07-30T17:19:09.281Z,67.40
2022-07-30T17:22:12.337Z,67.77
2022-07-30T17:25:15.219Z,69.42
2022-07-30T17:28:19.557Z,68.65
2022-07-30T17:31:27.429Z,69.06
2022-07-30T17:34:30.071Z,69.88
2022-07-30T17:37:32.956Z,71.85
2022-07-30T17:40:35.794Z,72.94
2022-07-30T17:43:38.584Z,72.38
2022-07-30T17:46:41.356Z,72.83
2022-07-30T17:49:44.363Z,72.39
2022-07-30T17:52:46.986Z,71.91
2022-07-30T17:55:57.439Z,72.52
2022-07-30T17:59:00.879Z,72.98
2022-07-30T18:02:04.896Z,73.46
2022-07-30T18:05:10.510Z,74.26
2022-07-30T18:08:13.232Z,74.16
2022-07-30T18:11:17.144Z,75.17
2022-07-30T18:14:19.746Z,75.19
2022-07-30T18:17:22.654Z,75.50
2022-07-30T18:20:25.357Z,75.70
2022-07-30T18:23:34.781Z,77.23
2022-07-30T18:26:40.025Z,77.07
2022-07-30T18:29:43.016Z,78.21
2022-07-30T18:32:45.601Z,79.15
2022-07-30T18:35:48.599Z,78.23
2022-07-30T18:38:51.369Z,79.11
2022-07-30T18:41:54.308Z,79.72
2022-07-30T18:44:56.845Z,79.76
2022-07-30T18:47:59.624Z,80.57
2022-07-30T18:51:03.697Z,80.19
2022-07-30T18:54:06.822Z,81.04
2022-07-30T18:57:14.001Z,79.18
2022-07-30T19:00:34.366Z,80.44
2022-07-30T19:03:38.235Z,77.49
2022-07-30T19:06:41.387Z,78.90
2022-07-30T19:09:45.169Z,76.43
2022-07-30T19:12:48.008Z,78.22
2022-07-30T19:15:51.021Z,76.81
2022-07-30T19:18:54.117Z,75.17
2022-07-30T19:21:57.912Z,76.78
2022-07-30T19:25:00.720Z,75.26
2022-07-30T19:28:05.031Z,75.49
2022-07-30T19:31:08.300Z,76.31
2022-07-30T19:34:11.160Z,76.21
2022-07-30T19:37:13.963Z,75.82
2022-07-30T19:40:16.573Z,74.52
2022-07-30T19:43:24.275Z,74.63
2022-07-30T19:46:27.605Z,74.05
2022-07-30T19:49:32.800Z,74.46
2022-07-30T19:52:37.755Z,74.48
2022-07-30T19:55:41.261Z,74.12
2022-07-30T19:58:44.811Z,73.71
2022-07-30T20:01:51.957Z,73.59
2022-07-30T20:04:55.068Z,74.53
2022-07-30T20:07:58.385Z,74.84
2022-07-30T20:11:02.226Z,75.40
2022-07-30T20:14:05.936Z,74.94
2022-07-30T20:17:08.738Z,74.95
2022-07-30T20:20:12.610Z,74.69
2022-07-30T20:23:15.381Z,75.93
2022-07-30T20:26:19.037Z,75.62
2022-07-30T20:29:22.133Z,76.02
2022-07-30T20:32:25.735Z,76.10
2022-07-30T20:35:29.192Z,76.19
2022-07-30T20:38:33.845Z,76.03
2022-07-30T20:41:39.844Z,75.79
2022-07-30T20:44:50.612Z,76.39
2022-07-30T20:47:56.420Z,77.04
2022-07-30T20:50:59.221Z,77.08
2022-07-30T20:54:02.504Z,77.09
2022-07-30T20:57:15.780Z,77.14
2022-07-30T21:00:20.217Z,77.49
2022-07-30T21:03:23.926Z,77.94
2022-07-30T21:06:27.337Z,78.42
2022-07-30T21:09:51.896Z,78.24
2022-07-30T21:12:58.553Z,79.62
2022-07-30T21:16:16.809Z,80.37
2022-07-30T21:19:19.962Z,81.23
2022-07-30T21:22:26.312Z,82.69
2022-07-30T21:25:32.938Z,83.27
2022-07-30T21:28:51.664Z,83.41
2022-07-30T21:32:01.387Z,83.51
2022-07-30T21:35:08.604Z,84.87
2022-07-30T21:38:14.651Z,85.18
2022-07-30T21:41:19.894Z,87.53
2022-07-30T21:44:42.660Z,88.29
2022-07-30T21:47:47.545Z,87.71
2022-07-30T21:50:50.928Z,86.07
2022-07-30T21:53:53.553Z,85.86
2022-07-30T21:56:58.317Z,86.87
2022-07-30T22:00:01.057Z,88.45
2022-07-30T22:03:19.311Z,89.14
2022-07-30T22:06:41.193Z,90.86
2022-07-30T22:09:43.884Z,91.81
2022-07-30T22:12:46.649Z,91.50
2022-07-30T22:15:50.685Z,91.05
2022-07-30T22:18:53.514Z,93.88
2022-07-30T22:21:56.116Z,94.98
2022-07-30T22:25:00.345Z,94.19
2022-07-30T22:28:03.070Z,95.24
2022-07-30T22:31:11.176Z,95.92
2022-07-30T22:34:16.928Z,97.00
2022-07-30T22:37:21.575Z,96.70
2022-07-30T22:40:24.833Z,97.39
2022-07-30T22:43:33.087Z,97.25
2022-07-30T22:46:38.056Z,97.25
2022-07-30T22:49:50.352Z,98.22
2022-07-30T22:53:01.683Z,98.51
2022-07-30T23:00:00.306Z,97.77
2022-07-30T23:03:04.071Z,99.07
2022-07-30T23:09:36.792Z,100.00
2022-07-30T23:12:30.937Z,98.56
2022-07-30T23:12:33.917Z,98.38
2022-07-30T23:12:54.808Z,98.19
2022-07-30T23:15:57.733Z,100.00
2022-07-30T23:19:00.478Z,99.95
2022-07-30T23:22:03.355Z,98.02
2022-07-30T23:25:07.649Z,98.28
2022-07-30T23:28:11.222Z,98.20
2022-07-30T23:31:14.102Z,97.42
2022-07-30T23:34:16.932Z,99.23
2022-07-30T23:37:19.606Z,99.53
2022-07-30T23:40:23.404Z,98.53
2022-07-30T23:43:25.947Z,97.76
2022-07-30T23:46:28.775Z,99.17
2022-07-30T23:49:31.414Z,98.42
2022-07-30T23:52:34.388Z,97.98
2022-07-30T23:55:38.082Z,98.03
2022-07-30T23:58:45.994Z,97.87
